KGRB/GRB METAR and TAF weather

Enter ICAO airport designator
Station Type Date Time Source
KGRB METAR 2021/07/29 02:15 UTC NOAA

KGRB 290215Z 14005KT 10SM -RA FEW120 23/21 A2988 RMK AO2 RAB02 P0001 T02330206


Station Type Date Time Source
KGRB Decoded METAR 2021/07/29 02:15 UTC NOAA

AUSTIN STRAUBEL INTERNATIONAL AIRPORT , WI, United States (KGRB) 44-29N 088-08W 205M
Jul 28, 2021 - 10:15 PM EDT / 2021.07.29 0215 UTC
Wind: from the SE (140 degrees) at 6 MPH (5 KT):0
Visibility: 10 mile(s):0
Sky conditions: mostly clear
Weather: light rain
Precipitation last hour: 0.01 inches
Temperature: 73.9 F (23.3 C)
Dew Point: 69.1 F (20.6 C)
Relative Humidity: 84%
Pressure (altimeter): 29.88 in. Hg (1011 hPa)
ob: KGRB 290215Z 14005KT 10SM -RA FEW120 23/21 A2988 RMK AO2 RAB02 P0001 T02330206
cycle: 2

Station Type Date Time Source
KGRB TAF 2021/07/29 02:06 UTC NOAA

TAF
AMD KGRB 290205Z 2902/2924 13006KT P6SM -SHRA BKN040 BKN070
TEMPO 2904/2906 33035G50KT 3/4SM +TSRA BKN012CB
FM290700 25007KT P6SM BKN050 WS020/27035KT
FM291000 31005KT 6SM BR BKN015
FM291500 36008G16KT P6SM SCT024

Example: see airport list